Latest Weather Observations for Kingscote

IDS60801

Issued at 11:05 am CST Saturday 20 September 2014 (issued every 30 minutes, with the page automatically refreshed every 10 minutes)

About weather observations | Map of weather stations | Latest weather observations for SA | Other Formats
Station Details ID: 022841 Name: KINGSCOTE AERO Lat: -35.71 Lon: 137.52 Height: 6.23 m
Data from the previous 72 hours. | See also: Recent months at Kingscote
Date/Time
CST
Temp
°C
App
Temp
°C
Dew
Point
Rel
Hum
%
Delta-T
°C
Wind Press
QNH
hPa
Press
MSL
hPa
Rain
since 9 am
mm
Dir
 
Spd
km/h
Gust
km/h
Spd
kts
Gust
kts
20/11:00am 17.6 13.1 6.2 47 5.6 ENE 19 26 10 14 1026.4 1026.4 0.0
20/10:30am 17.2 13.0 7.5 53 4.8 ENE 19 24 10 13 1026.5 1026.5 0.0
20/10:00am 16.4 12.7 8.1 58 4.2 E 17 20 9 11 1027.0 1027.0 0.0
20/09:30am 15.6 12.5 8.8 64 3.4 ENE 15 20 8 11 1027.3 1027.3 0.0
20/09:00am 14.9 13.1 9.3 69 2.9 E 9 15 5 8 1027.2 1027.2 0.2
20/08:30am 12.5 12.2 8.8 78 1.8 CALM 0 0 0 0 1026.8 1026.8 0.2
20/08:00am 8.9 8.4 7.8 93 0.5 CALM 0 0 0 0 1026.5 1026.5 0.2
20/07:30am 5.9 4.9 5.5 97 0.2 CALM 0 0 0 0 1026.2 1026.2 0.2
20/07:00am 2.9 1.3 2.5 97 0.2 CALM 0 0 0 0 1025.8 1025.8 0.2
20/06:30am 1.3 -0.5 0.9 97 0.1 CALM 0 0 0 0 1025.5 1025.5 0.2
20/06:00am 2.0 0.3 1.6 97 0.2 WSW 0 0 0 0 1025.1 1025.1 0.2
20/05:30am 2.2 0.5 1.8 97 0.2 CALM 0 0 0 0 1024.8 1024.8 0.2
20/05:00am 2.0 0.3 1.6 97 0.2 CALM 0 0 0 0 1024.4 1024.4 0.2
20/04:30am 1.9 0.1 1.3 96 0.2 CALM 0 0 0 0 1023.9 1023.9 0.2
20/04:00am 2.5 0.8 1.9 96 0.2 CALM 0 0 0 0 1023.7 1023.7 0.2
20/03:30am 2.3 0.6 1.6 95 0.3 CALM 0 0 0 0 1023.6 1023.6 0.2
20/03:00am 3.0 1.4 2.4 96 0.2 CALM 0 0 0 0 1023.6 1023.6 0.2
20/02:30am 3.5 2.0 2.9 96 0.2 CALM 0 0 0 0 1023.9 1023.9 0.2
20/02:00am 3.3 1.7 2.6 95 0.3 CALM 0 0 0 0 1024.1 1024.1 0.2
20/01:30am 4.1 2.7 3.4 95 0.3 CALM 0 0 0 0 1024.2 1024.2 0.2
20/01:00am 4.4 3.0 3.5 94 0.4 CALM 0 0 0 0 1024.3 1024.3 0.2
20/12:30am 5.1 3.8 4.2 94 0.4 CALM 0 0 0 0 1024.2 1024.2 0.2
20/12:00am 5.9 4.8 5.2 95 0.3 SW 0 0 0 0 1024.2 1024.2 0.2
 
Date/Time
CST
Temp
°C
App
Temp
°C
Dew
Point
Rel
Hum
%
Delta-T
°C
Wind Press
QNH
hPa
Press
MSL
hPa
Rain
since 9 am
mm
Dir
 
Spd
km/h
Gust
km/h
Spd
kts
Gust
kts
19/11:30pm 5.7 4.6 5.0 95 0.3 CALM 0 0 0 0 1024.1 1024.1 0.2
19/11:00pm 5.6 4.4 4.6 93 0.4 CALM 0 0 0 0 1024.2 1024.2 0.2
19/10:30pm 5.3 2.7 4.1 92 0.5 S 7 7 4 4 1024.4 1024.4 0.2
19/10:00pm 6.3 3.4 4.6 89 0.7 SSE 9 11 5 6 1024.6 1024.6 0.2
19/09:30pm 7.4 5.1 5.7 89 0.8 SSE 7 9 4 5 1024.6 1024.6 0.2
19/09:00pm 8.5 5.6 6.6 88 0.9 SE 11 11 6 6 1024.8 1024.8 0.2
19/08:30pm 8.9 6.4 6.7 86 1.0 SSE 9 9 5 5 1024.7 1024.7 0.2
19/08:00pm 9.4 7.3 6.8 84 1.2 SSE 7 9 4 5 1024.6 1024.6 0.2
19/07:30pm 9.8 7.4 6.9 82 1.4 SE 9 13 5 7 1024.5 1024.5 0.2
19/07:00pm 10.7 8.4 7.4 80 1.6 E 9 13 5 7 1024.2 1024.2 0.2
19/06:30pm 11.4 8.3 7.3 76 2.0 E 13 17 7 9 1024.0 1024.0 0.2
19/06:00pm 12.4 9.8 7.9 74 2.2 ENE 11 15 6 8 1023.8 1023.8 0.2
19/05:30pm 14.2 11.2 6.1 58 3.9 ENE 11 17 6 9 1023.6 1023.6 0.2
19/05:00pm 14.9 11.3 5.1 52 4.6 E 13 17 7 9 1023.7 1023.7 0.2
19/04:30pm 15.4 11.9 5.3 51 4.8 E 13 19 7 10 1023.5 1023.5 0.2
19/04:00pm 15.7 11.8 5.3 50 4.9 E 15 19 8 10 1023.5 1023.5 0.2
19/03:30pm 15.7 11.4 5.3 50 4.9 E 17 22 9 12 1023.7 1023.7 0.2
19/03:00pm 16.3 12.0 5.3 48 5.2 E 17 20 9 11 1023.8 1023.8 0.2
19/02:30pm 16.2 11.6 5.5 49 5.1 ENE 19 22 10 12 1024.1 1024.1 0.2
19/02:00pm 15.9 12.6 4.3 46 5.4 NNE 11 19 6 10 1024.4 1024.4 0.2
19/01:30pm 16.1 12.6 7.3 56 4.3 NE 15 24 8 13 1024.6 1024.6 0.2
19/01:00pm 16.0 11.9 7.7 58 4.2 ENE 19 26 10 14 1024.9 1024.9 0.2
19/12:30pm 15.9 12.3 8.2 60 3.9 E 17 24 9 13 1025.2 1025.2 0.2
19/12:00pm 15.3 11.3 8.3 63 3.5 NE 19 26 10 14 1025.5 1025.5 0.2
19/11:30am 15.0 10.6 7.3 60 3.8 ENE 20 28 11 15 1025.8 1025.8 0.2
19/11:00am 14.9 10.0 7.0 59 3.9 ENE 22 30 12 16 1025.9 1025.9 0.2
19/10:30am 14.2 9.7 7.0 62 3.5 NE 20 28 11 15 1026.2 1026.2 0.0
19/10:00am 14.3 9.6 7.6 64 3.3 ENE 22 30 12 16 1026.4 1026.4 0.0
19/09:30am 13.8 9.1 7.6 66 3.0 ENE 22 30 12 16 1026.8 1026.8 0.0
19/09:00am 13.3 8.7 8.0 70 2.6 ENE 22 26 12 14 1026.8 1026.8 1.4
19/08:30am 10.2 9.7 8.0 86 1.1 CALM 0 0 0 0 1026.9 1026.9 1.4
19/08:00am 7.2 6.4 6.6 96 0.3 CALM 0 0 0 0 1026.7 1026.7 1.4
19/07:30am 4.4 3.1 4.0 97 0.2 CALM 0 0 0 0 1026.4 1026.4 1.4
19/07:00am 3.8 2.4 3.5 98 0.1 CALM 0 0 0 0 1026.2 1026.2 1.4
19/06:30am 1.8 0.0 1.5 98 0.1 CALM 0 0 0 0 1026.0 1026.0 1.4
19/06:00am 0.8 -1.1 0.5 98 0.1 CALM 0 0 0 0 1025.8 1025.8 1.4
19/05:30am 1.0 -0.9 0.7 98 0.1 CALM 0 0 0 0 1025.6 1025.6 1.4
19/05:00am 1.1 -0.8 0.8 98 0.1 CALM 0 0 0 0 1025.6 1025.6 1.4
19/04:30am 1.1 -0.8 0.8 98 0.1 CALM 0 0 0 0 1025.3 1025.3 1.4
19/04:00am 1.4 -0.4 1.0 97 0.1 CALM 0 0 0 0 1025.2 1025.2 1.4
19/03:30am 1.5 -0.3 1.1 97 0.1 CALM 0 0 0 0 1025.3 1025.3 1.4
19/03:00am 1.7 -0.1 1.3 97 0.2 CALM 0 0 0 0 1025.4 1025.4 1.4
19/02:30am 1.8 0.0 1.4 97 0.2 CALM 0 0 0 0 1025.6 1025.6 1.4
19/02:00am 2.5 0.8 2.1 97 0.2 CALM 0 0 0 0 1025.7 1025.7 1.4
19/01:30am 2.8 1.2 2.2 96 0.2 CALM 0 0 0 0 1026.0 1026.0 1.4
19/01:00am 3.1 1.5 2.5 96 0.2 CALM 0 0 0 0 1026.2 1026.2 1.4
19/12:30am 3.5 2.0 2.9 96 0.2 CALM 0 0 0 0 1026.3 1026.3 1.4
19/12:00am 3.6 2.1 3.0 96 0.2 CALM 0 0 0 0 1026.5 1026.5 1.4
 
Date/Time
CST
Temp
°C
App
Temp
°C
Dew
Point
Rel
Hum
%
Delta-T
°C
Wind Press
QNH
hPa
Press
MSL
hPa
Rain
since 9 am
mm
Dir
 
Spd
km/h
Gust
km/h
Spd
kts
Gust
kts
18/11:30pm 4.1 2.7 3.5 96 0.2 CALM 0 0 0 0 1026.7 1026.7 1.4
18/11:00pm 4.9 3.6 4.2 95 0.3 CALM 0 0 0 0 1026.8 1026.8 1.4
18/10:30pm 5.4 4.3 5.0 97 0.2 CALM 0 0 0 0 1027.0 1027.0 1.4
18/10:00pm 4.4 3.0 3.7 95 0.3 CALM 0 0 0 0 1027.2 1027.2 1.4
18/09:30pm 5.3 4.1 4.6 95 0.3 CALM 0 0 0 0 1027.2 1027.2 1.4
18/09:00pm 5.9 4.8 5.2 95 0.3 CALM 0 0 0 0 1027.3 1027.3 1.4
18/08:30pm 6.4 5.3 5.2 92 0.5 CALM 0 0 0 0 1027.2 1027.2 1.4
18/08:00pm 7.1 5.0 5.7 91 0.6 SW 6 7 3 4 1027.1 1027.1 1.4
18/07:30pm 7.6 5.3 5.7 88 0.8 SW 7 7 4 4 1027.0 1027.0 1.4
18/07:00pm 9.1 7.2 6.5 84 1.2 SSE 6 6 3 3 1026.7 1026.7 1.4
18/06:30pm 9.8 7.7 6.7 81 1.4 SSE 7 9 4 5 1026.4 1026.4 1.4
18/06:00pm 10.8 8.0 6.9 77 1.8 SE 11 13 6 7 1026.0 1026.0 1.4
18/05:30pm 12.2 8.3 6.9 70 2.5 SE 17 20 9 11 1026.0 1026.0 1.4
18/05:00pm 13.1 9.1 6.5 64 3.2 SE 17 24 9 13 1025.8 1025.8 1.4
18/04:30pm 13.9 9.7 7.4 65 3.2 SE 19 24 10 13 1025.5 1025.5 1.4
18/04:00pm 13.8 9.3 5.9 59 3.7 ESE 19 26 10 14 1025.5 1025.5 1.4
18/03:30pm 13.2 9.2 6.5 64 3.2 SE 17 24 9 13 1025.3 1025.3 1.4
18/03:00pm 13.5 9.0 6.1 61 3.5 SE 19 28 10 15 1025.2 1025.2 1.4
18/02:30pm 13.5 10.7 7.1 65 3.1 SSE 11 20 6 11 1025.4 1025.4 1.4
18/02:00pm 12.9 11.8 10.1 83 1.4 SE 6 9 3 5 1025.6 1025.6 1.4
18/01:57pm 12.5 11.1 9.7 83 1.4 ESE 7 9 4 5 1025.7 1025.7 1.4
18/01:30pm 11.1 6.3 9.0 87 1.0 S 24 33 13 18 1025.9 1025.9 1.0
18/01:26pm 11.2 5.9 8.4 83 1.4 S 26 33 14 18 1025.9 1025.9 0.4
18/01:00pm 14.7 12.7 7.3 61 3.6 ESE 7 11 4 6 1026.0 1026.0 0.0
18/12:30pm 14.0 8.9 5.9 58 3.8 S 22 28 12 15 1026.0 1026.0 0.0
18/12:00pm 13.6 10.0 6.9 64 3.2 S 15 20 8 11 1026.4 1026.4 0.0
18/11:30am 13.0 8.7 6.8 66 3.0 S 19 20 10 11 1026.7 1026.7 0.0
18/11:00am 12.6 7.6 6.4 66 2.9 S 22 32 12 17 1026.6 1026.6 0.0
18/10:30am 14.7 12.2 6.5 58 3.9 ESE 9 13 5 7 1026.6 1026.6 0.0
18/10:00am 14.4 12.1 5.7 56 4.1 ESE 7 13 4 7 1026.8 1026.8 0.0
18/09:30am 12.9 10.8 5.6 61 3.4 SSE 6 9 3 5 1027.1 1027.1 0.0
18/09:00am 11.8 9.4 7.1 73 2.2 S 9 11 5 6 1027.4 1027.4 0.0
18/08:30am 10.9 8.2 7.4 79 1.7 SSW 11 13 6 7 1027.4 1027.4 0.0
18/08:00am 10.1 7.6 8.2 88 0.9 SW 11 13 6 7 1027.0 1027.0 0.0
18/07:30am 8.9 7.6 7.7 92 0.6 SW 4 15 2 8 1026.7 1026.7 0.0
18/07:00am 8.3 6.9 7.4 94 0.4 WSW 4 7 2 4 1026.2 1026.2 0.0
18/06:30am 8.1 6.1 7.0 93 0.5 NW 7 7 4 4 1025.9 1025.9 0.0
18/06:00am 8.1 6.3 7.0 93 0.5 W 6 6 3 3 1025.8 1025.8 0.0
18/05:30am 8.1 7.5 7.2 94 0.4 CALM 0 7 0 4 1025.6 1025.6 0.0
18/05:00am 7.8 5.9 6.7 93 0.5 W 6 7 3 4 1025.1 1025.1 0.0
18/04:30am 7.8 5.4 6.9 94 0.4 W 9 11 5 6 1025.1 1025.1 0.0
18/04:00am 7.7 4.9 6.8 94 0.4 W 11 13 6 7 1024.9 1024.9 0.0
18/03:30am 7.4 4.5 6.5 94 0.4 W 11 11 6 6 1025.0 1025.0 0.0
18/03:00am 7.8 5.3 6.4 91 0.6 W 9 11 5 6 1025.1 1025.1 0.0
18/02:30am 8.3 5.8 6.6 89 0.8 WNW 9 13 5 7 1025.4 1025.4 0.0
18/02:00am 8.2 5.2 6.2 87 0.9 WSW 11 13 6 7 1025.5 1025.5 0.0
18/01:30am 7.9 5.6 5.5 85 1.1 WSW 7 9 4 5 1025.5 1025.5 0.0
18/01:00am 8.2 5.9 5.8 85 1.1 W 7 9 4 5 1025.7 1025.7 0.0
18/12:30am 8.0 5.1 4.9 81 1.4 WSW 9 13 5 7 1025.7 1025.7 0.0
18/12:00am 6.9 5.7 4.4 84 1.1 CALM 0 0 0 0 1025.6 1025.6 0.0
 
Date/Time
CST
Temp
°C
App
Temp
°C
Dew
Point
Rel
Hum
%
Delta-T
°C
Wind Press
QNH
hPa
Press
MSL
hPa
Rain
since 9 am
mm
Dir
 
Spd
km/h
Gust
km/h
Spd
kts
Gust
kts
17/11:30pm 7.2 6.0 4.5 83 1.2 CALM 0 0 0 0 1025.8 1025.8 0.0
17/11:00pm 8.2 7.1 5.1 81 1.4 CALM 0 0 0 0 1025.8 1025.8 0.0
17/10:30pm 7.9 6.9 5.5 85 1.1 CALM 0 0 0 0 1025.6 1025.6 0.0
17/10:00pm 7.9 6.7 4.8 81 1.4 CALM 0 0 0 0 1025.5 1025.5 0.0
17/09:30pm 8.1 5.2 4.5 78 1.6 NNW 9 13 5 7 1025.4 1025.4 0.0
17/09:00pm 7.4 4.5 4.4 81 1.3 NW 9 11 5 6 1025.4 1025.4 0.0
17/08:30pm 8.1 5.4 3.9 75 1.8 WNW 7 9 4 5 1025.4 1025.4 0.0
17/08:00pm 7.3 4.7 4.1 80 1.4 SSW 7 11 4 6 1025.3 1025.3 0.0
17/07:30pm 7.6 4.9 3.6 76 1.7 S 7 9 4 5 1024.9 1024.9 0.0
17/07:00pm 7.9 4.1 4.1 77 1.6 SW 13 13 7 7 1024.8 1024.8 0.0
17/06:30pm 8.6 5.5 3.8 72 2.1 SSW 9 11 5 6 1024.5 1024.5 0.0
17/06:00pm 10.5 7.0 3.5 62 3.0 SSW 11 15 6 8 1024.4 1024.4 0.0
17/05:30pm 12.2 8.0 3.7 56 3.8 S 15 19 8 10 1024.1 1024.1 0.0
17/05:00pm 12.9 7.6 3.0 51 4.4 S 20 26 11 14 1023.6 1023.6 0.0
17/04:30pm 13.3 7.8 4.2 54 4.1 S 22 28 12 15 1023.4 1023.4 0.0
17/04:00pm 14.2 9.2 4.5 52 4.5 SSW 20 26 11 14 1023.4 1023.4 0.0
17/03:30pm 13.5 8.5 4.4 54 4.1 SSW 20 24 11 13 1023.2 1023.2 0.0
17/03:00pm 13.9 7.8 2.8 47 4.9 SSW 24 32 13 17 1023.0 1023.0 0.0
17/02:30pm 14.3 9.4 4.3 51 4.6 SSW 19 24 10 13 1022.7 1022.7 0.0
17/02:00pm 15.2 9.9 5.1 51 4.8 S 22 32 12 17 1022.7 1022.7 0.0
17/01:30pm 14.3 8.9 4.3 51 4.6 SSW 22 32 12 17 1022.6 1022.6 0.0
17/01:00pm 13.9 7.8 5.0 55 4.1 SSW 26 33 14 18 1022.7 1022.7 0.0
17/12:30pm 15.7 9.6 5.0 49 5.0 SSW 26 33 14 18 1022.7 1022.7 0.0
17/12:00pm 15.1 10.1 4.5 49 4.9 SSW 20 30 11 16 1022.8 1022.8 0.0
17/11:30am 15.2 10.5 6.0 54 4.4 SSW 20 30 11 16 1022.7 1022.7 0.0

Other Formats:

Comma delimited format used in spreadsheet applications
http://www.bom.gov.au/fwo/IDS60801/IDS60801.95807.axf

JavaScript Object Notation format (JSON) in row-major order
http://www.bom.gov.au/fwo/IDS60801/IDS60801.95807.json